createdAt,value
2018-02-09T00:02:21.308Z,48.63
2018-02-09T00:07:15.981Z,49.97
2018-02-09T00:12:10.303Z,51.67
2018-02-09T00:17:04.781Z,50.53
2018-02-09T00:21:59.133Z,50.77
2018-02-09T00:26:53.439Z,51.40
2018-02-09T00:31:47.714Z,52.20
2018-02-09T00:36:42.011Z,50.00
2018-02-09T00:41:36.156Z,47.90
2018-02-09T00:46:31.222Z,50.87
2018-02-09T00:51:25.697Z,49.57
2018-02-09T00:56:20.221Z,50.37
2018-02-09T01:01:14.829Z,50.63
2018-02-09T01:06:09.128Z,52.20
2018-02-09T01:11:03.533Z,49.50
2018-02-09T01:15:57.862Z,52.40
2018-02-09T01:20:52.298Z,50.10
2018-02-09T01:25:47.352Z,51.33
2018-02-09T01:30:41.672Z,51.23
2018-02-09T01:35:35.989Z,49.80
2018-02-09T01:40:30.282Z,51.03
2018-02-09T01:45:24.587Z,53.57
2018-02-09T01:50:19.081Z,50.00
2018-02-09T01:55:13.368Z,49.97
2018-02-09T02:00:07.775Z,51.20
2018-02-09T02:05:02.079Z,48.97
2018-02-09T02:09:56.427Z,49.83
2018-02-09T02:14:51.518Z,49.73
2018-02-09T02:19:45.787Z,52.10
2018-02-09T02:24:40.088Z,49.57
2018-02-09T02:29:34.532Z,50.93
2018-02-09T02:34:29.596Z,51.60
2018-02-09T02:39:24.016Z,51.83
2018-02-09T02:44:18.382Z,49.23
2018-02-09T02:49:13.661Z,49.33
2018-02-09T02:54:07.962Z,53.17
2018-02-09T02:59:02.260Z,47.57
2018-02-09T03:03:56.544Z,48.80
2018-02-09T03:08:50.946Z,48.87
2018-02-09T03:13:45.380Z,45.93
2018-02-09T03:18:39.677Z,50.93
2018-02-09T03:23:33.956Z,50.80
2018-02-09T03:28:28.254Z,48.80
2018-02-09T03:33:22.548Z,49.10
2018-02-09T03:38:16.867Z,47.77
2018-02-09T03:43:11.136Z,48.47
2018-02-09T03:48:05.437Z,47.57
2018-02-09T03:52:59.734Z,48.73
2018-02-09T03:57:54.026Z,47.37
2018-02-09T04:02:49.088Z,46.77
2018-02-09T04:07:43.379Z,46.33
2018-02-09T04:12:37.673Z,47.20
2018-02-09T04:17:31.974Z,46.27
2018-02-09T04:22:26.268Z,46.30
2018-02-09T04:27:20.552Z,48.90
2018-02-09T04:32:14.840Z,47.23
2018-02-09T04:37:09.924Z,46.23
2018-02-09T04:42:05.093Z,46.00
2018-02-09T04:46:59.640Z,44.77
2018-02-09T04:51:55.784Z,46.63
2018-02-09T04:56:50.139Z,45.17
2018-02-09T05:01:45.197Z,46.53
2018-02-09T05:06:39.495Z,45.27
2018-02-09T05:11:33.768Z,44.30
2018-02-09T05:16:28.084Z,43.77
2018-02-09T05:21:22.378Z,44.40
2018-02-09T05:26:16.689Z,45.20
2018-02-09T05:31:11.169Z,46.40
2018-02-09T05:36:06.221Z,45.27
2018-02-09T05:41:00.501Z,45.60
2018-02-09T05:45:54.785Z,44.17
2018-02-09T05:50:49.856Z,44.33
2018-02-09T05:55:44.149Z,44.40
2018-02-09T06:00:38.596Z,43.93
2018-02-09T06:05:33.930Z,39.23
2018-02-09T06:10:29.103Z,43.90
2018-02-09T06:15:23.390Z,45.30
2018-02-09T06:20:17.694Z,43.27
2018-02-09T06:25:11.990Z,42.80
2018-02-09T06:30:06.493Z,48.17
2018-02-09T06:35:01.284Z,41.13
2018-02-09T06:39:56.577Z,41.97
2018-02-09T06:44:50.880Z,45.13
2018-02-09T06:49:45.174Z,44.77
2018-02-09T06:54:39.877Z,45.57
2018-02-09T06:59:34.771Z,45.13
2018-02-09T07:04:29.075Z,47.37
2018-02-09T07:09:23.360Z,43.00
2018-02-09T07:14:17.775Z,46.37
2018-02-09T07:19:12.109Z,38.27
2018-02-09T07:24:06.410Z,45.60
2018-02-09T07:29:00.700Z,44.50
2018-02-09T07:33:55.021Z,45.27
2018-02-09T07:38:49.300Z,43.90
2018-02-09T07:43:43.730Z,43.87
2018-02-09T07:48:38.368Z,42.50
2018-02-09T07:53:32.670Z,42.37
2018-02-09T07:58:27.274Z,34.20
2018-02-09T08:03:21.817Z,34.50
2018-02-09T08:08:16.140Z,34.33
2018-02-09T08:13:10.671Z,33.27
2018-02-09T08:18:05.737Z,33.63
2018-02-09T08:23:00.324Z,33.63
2018-02-09T08:27:54.616Z,34.80
2018-02-09T08:32:49.685Z,36.27
2018-02-09T08:37:44.133Z,35.73
2018-02-09T08:42:39.282Z,37.33
2018-02-09T08:47:33.584Z,36.93
2018-02-09T08:52:34.930Z,37.23
2018-02-09T08:57:29.320Z,39.07
2018-02-09T09:02:24.504Z,39.37
2018-02-09T09:07:18.873Z,38.53
2018-02-09T09:12:13.158Z,39.97
2018-02-09T09:17:07.444Z,38.50
2018-02-09T09:22:02.638Z,42.60
2018-02-09T09:26:56.820Z,41.33
2018-02-09T09:31:51.124Z,39.50
2018-02-09T09:36:45.422Z,41.60
2018-02-09T09:41:39.769Z,41.60
2018-02-09T09:46:34.820Z,40.63
2018-02-09T09:51:29.347Z,41.60
2018-02-09T09:56:23.697Z,41.90
2018-02-09T10:01:23.397Z,41.03
2018-02-09T10:06:19.355Z,42.73
2018-02-09T10:11:14.409Z,40.47
2018-02-09T10:16:08.507Z,40.50
2018-02-09T10:21:02.931Z,39.67
2018-02-09T10:25:57.196Z,39.83
2018-02-09T10:30:51.473Z,39.23
2018-02-09T10:35:46.530Z,38.07
2018-02-09T10:40:41.077Z,38.63
2018-02-09T10:45:35.382Z,38.10
2018-02-09T10:50:29.835Z,38.57
2018-02-09T10:55:24.171Z,36.20
2018-02-09T11:16:16.301Z,34.13
2018-02-09T11:21:10.882Z,33.90
2018-02-09T11:26:06.329Z,33.77
2018-02-09T11:31:00.742Z,35.40
2018-02-09T11:35:55.463Z,32.43
2018-02-09T11:40:49.809Z,33.93
2018-02-09T11:45:45.013Z,33.60
2018-02-09T11:50:39.284Z,34.17
2018-02-09T11:55:33.739Z,34.20
2018-02-09T12:00:28.795Z,35.67
2018-02-09T12:05:23.216Z,34.43
2018-02-09T12:10:17.603Z,34.67
2018-02-09T12:15:12.216Z,33.37
2018-02-09T12:20:06.722Z,31.00
2018-02-09T12:25:01.332Z,32.77
2018-02-09T12:29:55.645Z,30.90
2018-02-09T12:34:50.162Z,29.90
2018-02-09T12:39:44.446Z,29.00
2018-02-09T12:44:38.709Z,31.03
2018-02-09T12:49:33.137Z,29.07
2018-02-09T12:54:27.552Z,29.83
2018-02-09T12:59:21.839Z,31.10
2018-02-09T13:04:16.162Z,30.33
2018-02-09T13:09:10.524Z,32.30
2018-02-09T13:14:04.955Z,32.53
2018-02-09T13:19:00.189Z,32.57
2018-02-09T13:24:27.380Z,32.67
2018-02-09T13:29:21.844Z,30.90
2018-02-09T13:34:16.327Z,29.70
2018-02-09T13:39:11.658Z,31.03
2018-02-09T13:44:05.981Z,31.60
2018-02-09T13:49:00.310Z,28.53
2018-02-09T13:53:54.594Z,28.73
2018-02-09T13:58:49.147Z,27.30
2018-02-09T14:03:44.871Z,25.23
2018-02-09T14:08:39.142Z,25.33
2018-02-09T14:13:34.136Z,22.03
2018-02-09T14:18:28.396Z,20.87
2018-02-09T14:23:23.770Z,19.97
2018-02-09T14:28:19.094Z,26.12
2018-02-09T14:33:13.672Z,20.27
2018-02-09T14:38:08.011Z,20.10
2018-02-09T14:43:02.401Z,17.83
2018-02-09T14:47:57.524Z,18.37
2018-02-09T14:52:51.827Z,18.40
2018-02-09T14:57:46.112Z,17.50
2018-02-09T15:02:40.416Z,16.50
2018-02-09T15:07:34.707Z,17.60
2018-02-09T15:12:29.224Z,15.40
2018-02-09T15:17:23.508Z,15.80
2018-02-09T15:22:17.824Z,14.17
2018-02-09T15:27:12.370Z,14.37
2018-02-09T15:32:06.672Z,14.83
2018-02-09T15:37:00.963Z,14.03
2018-02-09T15:41:55.377Z,13.73
2018-02-09T15:46:49.776Z,13.80
2018-02-09T15:51:44.548Z,13.23
2018-02-09T15:56:38.926Z,13.97
2018-02-09T16:01:34.123Z,13.50
2018-02-09T16:06:29.402Z,15.07
2018-02-09T16:11:24.798Z,14.30
2018-02-09T16:16:19.872Z,13.90
2018-02-09T16:21:14.274Z,14.67
2018-02-09T16:26:08.748Z,14.03
2018-02-09T16:31:03.008Z,14.10
2018-02-09T16:35:58.487Z,14.97
2018-02-09T16:40:52.774Z,14.93
2018-02-09T16:45:47.098Z,14.03
2018-02-09T16:50:41.365Z,13.90
2018-02-09T16:55:35.761Z,12.67
2018-02-09T17:00:30.139Z,12.20
2018-02-09T17:05:25.231Z,12.07
2018-02-09T17:10:19.538Z,12.37
2018-02-09T17:15:14.341Z,13.80
2018-02-09T17:20:08.678Z,13.43
2018-02-09T17:25:03.536Z,13.43
2018-02-09T17:29:57.886Z,14.57
2018-02-09T17:34:52.980Z,13.60
2018-02-09T17:39:47.552Z,11.67
2018-02-09T17:44:41.992Z,13.17
2018-02-09T17:49:36.522Z,12.33
2018-02-09T17:54:32.411Z,12.23
2018-02-09T17:59:26.838Z,12.37
2018-02-09T18:04:21.261Z,12.50
2018-02-09T18:09:15.540Z,12.97
2018-02-09T18:14:09.838Z,13.67
2018-02-09T18:19:04.320Z,12.70
2018-02-09T18:23:58.580Z,13.23
2018-02-09T18:28:53.630Z,12.40
2018-02-09T18:33:47.912Z,13.77
2018-02-09T18:38:42.990Z,13.37
2018-02-09T18:43:37.669Z,13.33
2018-02-09T18:48:32.105Z,12.57
2018-02-09T18:53:26.689Z,12.87
2018-02-09T18:58:20.971Z,13.17
2018-02-09T19:03:15.484Z,12.87
2018-02-09T19:08:09.856Z,12.07
2018-02-09T19:13:04.922Z,12.43
2018-02-09T19:17:59.026Z,12.43
2018-02-09T19:22:53.332Z,12.33
2018-02-09T19:27:47.676Z,12.13
2018-02-09T19:32:42.747Z,11.63
2018-02-09T19:37:37.540Z,12.50
2018-02-09T19:42:31.941Z,11.83
2018-02-09T19:47:26.322Z,10.77
2018-02-09T19:52:20.856Z,13.20
2018-02-09T19:57:15.218Z,11.27
2018-02-09T20:02:10.378Z,12.17
2018-02-09T20:07:05.417Z,13.53
2018-02-09T20:11:59.682Z,13.13
2018-02-09T20:16:54.132Z,13.50
2018-02-09T20:21:48.800Z,13.00
2018-02-09T20:26:43.166Z,13.77
2018-02-09T20:31:38.196Z,13.27
2018-02-09T20:36:32.552Z,14.30
2018-02-09T20:41:26.834Z,14.53
2018-02-09T20:46:21.338Z,15.50
2018-02-09T20:51:15.619Z,15.97
2018-02-09T20:56:10.236Z,15.77
2018-02-09T21:01:04.491Z,15.77
2018-02-09T21:05:59.668Z,16.47
2018-02-09T21:10:54.364Z,16.57
2018-02-09T21:15:48.628Z,16.30
2018-02-09T21:20:43.716Z,16.37
2018-02-09T21:25:37.994Z,15.53
2018-02-09T21:30:32.384Z,17.07
2018-02-09T21:35:29.707Z,17.80
2018-02-09T21:40:24.775Z,17.63
2018-02-09T21:45:19.234Z,16.47
2018-02-09T21:50:14.506Z,17.37
2018-02-09T21:55:09.027Z,16.53
2018-02-09T22:00:03.449Z,17.47
2018-02-09T22:04:57.754Z,18.30
2018-02-09T22:09:52.017Z,18.07
2018-02-09T22:14:46.460Z,18.23
2018-02-09T22:19:40.748Z,16.37
2018-02-09T22:24:35.153Z,17.20
2018-02-09T22:29:29.265Z,17.27
2018-02-09T22:34:24.312Z,17.07
2018-02-09T22:39:19.574Z,18.07
2018-02-09T22:44:13.831Z,18.90
2018-02-09T22:49:10.489Z,19.03
2018-02-09T22:54:05.267Z,18.47
2018-02-09T22:58:59.543Z,19.00
2018-02-09T23:03:53.834Z,17.67
2018-02-09T23:08:51.068Z,18.37
2018-02-09T23:13:45.547Z,18.70
2018-02-09T23:18:40.046Z,19.60
2018-02-09T23:23:34.323Z,19.17
2018-02-09T23:28:29.059Z,18.50
2018-02-09T23:33:23.330Z,16.57
2018-02-09T23:38:17.909Z,19.17
2018-02-09T23:43:12.179Z,18.40
2018-02-09T23:48:06.474Z,17.50
2018-02-09T23:53:00.727Z,18.10
2018-02-09T23:57:55.269Z,17.57
